createdAt,value
2023-05-22T00:00:09.458Z,79.81
2023-05-22T00:02:43.446Z,79.87
2023-05-22T00:05:15.199Z,79.45
2023-05-22T00:07:43.654Z,79.50
2023-05-22T00:10:11.502Z,80.09
2023-05-22T00:12:38.664Z,80.66
2023-05-22T00:15:06.601Z,81.15
2023-05-22T00:17:35.240Z,80.93
2023-05-22T00:20:06.101Z,81.03
2023-05-22T00:22:37.175Z,80.91
2023-05-22T00:25:05.823Z,81.20
2023-05-22T00:27:35.005Z,81.40
2023-05-22T00:30:05.098Z,80.88
2023-05-22T00:32:34.333Z,81.51
2023-05-22T00:35:02.063Z,81.80
2023-05-22T00:37:30.316Z,82.43
2023-05-22T00:39:57.699Z,82.25
2023-05-22T00:42:25.263Z,82.27
2023-05-22T00:44:54.779Z,82.35
2023-05-22T00:47:24.125Z,82.14
2023-05-22T00:49:58.016Z,82.14
2023-05-22T00:52:25.607Z,81.84
2023-05-22T00:54:54.453Z,81.78
2023-05-22T00:57:28.277Z,82.09
2023-05-22T00:59:56.971Z,81.92
2023-05-22T01:02:26.502Z,82.04
2023-05-22T01:04:57.154Z,81.81
2023-05-22T01:07:25.417Z,81.73
2023-05-22T01:09:53.060Z,81.67
2023-05-22T01:12:32.156Z,81.84
2023-05-22T01:15:03.131Z,81.82
2023-05-22T01:17:55.647Z,82.09
2023-05-22T01:20:33.739Z,82.20
2023-05-22T01:23:20.297Z,82.42
2023-05-22T01:26:18.637Z,82.06
2023-05-22T01:29:14.707Z,82.58
2023-05-22T01:31:46.080Z,82.02
2023-05-22T01:34:16.708Z,81.63
2023-05-22T01:36:46.477Z,81.77
2023-05-22T01:39:15.709Z,81.73
2023-05-22T01:41:43.895Z,81.40
2023-05-22T01:44:11.268Z,81.49
2023-05-22T01:46:44.628Z,81.72
2023-05-22T01:49:12.379Z,81.39
2023-05-22T01:52:24.463Z,81.75
2023-05-22T01:55:03.957Z,81.73
2023-05-22T01:57:59.885Z,81.74
2023-05-22T02:00:29.446Z,81.15
2023-05-22T02:03:18.074Z,80.89
2023-05-22T02:05:50.269Z,80.50
2023-05-22T02:08:20.609Z,80.73
2023-05-22T02:10:50.445Z,80.97
2023-05-22T02:13:24.421Z,81.22
2023-05-22T02:15:52.921Z,81.93
2023-05-22T02:18:20.344Z,82.32
2023-05-22T02:20:47.877Z,82.26
2023-05-22T02:23:16.536Z,82.29
2023-05-22T02:25:45.948Z,83.13
2023-05-22T02:28:15.528Z,83.34
2023-05-22T02:30:42.746Z,83.25
2023-05-22T02:33:10.211Z,83.63
2023-05-22T02:35:37.739Z,83.84
2023-05-22T02:38:05.334Z,83.60
2023-05-22T02:40:33.675Z,84.13
2023-05-22T02:43:01.018Z,83.83
2023-05-22T02:45:29.793Z,83.94
2023-05-22T02:47:58.717Z,84.34
2023-05-22T02:50:26.021Z,84.09
2023-05-22T02:52:59.653Z,84.50
2023-05-22T02:55:27.055Z,84.56
2023-05-22T02:57:54.483Z,85.10
2023-05-22T03:00:23.347Z,85.27
2023-05-22T03:02:51.721Z,85.40
2023-05-22T03:05:20.099Z,86.36
2023-05-22T03:07:48.734Z,86.71
2023-05-22T03:10:16.724Z,86.54
2023-05-22T03:12:44.933Z,87.41
2023-05-22T03:15:12.662Z,88.85
2023-05-22T03:17:39.896Z,90.72
2023-05-22T03:20:17.341Z,91.58
2023-05-22T03:22:46.216Z,91.36
2023-05-22T03:25:13.585Z,91.37
2023-05-22T03:27:41.557Z,92.00
2023-05-22T03:30:10.283Z,93.41
2023-05-22T03:32:38.159Z,93.92
2023-05-22T03:35:06.477Z,93.80
2023-05-22T03:37:34.861Z,93.17
2023-05-22T03:40:02.692Z,93.80
2023-05-22T03:42:30.854Z,94.45
2023-05-22T03:45:00.394Z,95.60
2023-05-22T03:47:30.031Z,95.68
2023-05-22T03:49:57.428Z,96.36
2023-05-22T03:52:25.096Z,97.47
2023-05-22T03:54:54.418Z,96.72
2023-05-22T03:57:22.824Z,96.64
2023-05-22T03:59:50.300Z,97.08
2023-05-22T04:02:17.862Z,97.83
2023-05-22T04:04:47.703Z,98.50
2023-05-22T04:07:15.467Z,98.24
2023-05-22T04:09:42.657Z,97.73
2023-05-22T04:12:12.214Z,97.07
2023-05-22T04:14:39.631Z,97.88
2023-05-22T04:17:12.274Z,98.64
2023-05-22T04:19:39.750Z,98.86
2023-05-22T04:22:07.238Z,100.00
2023-05-22T04:24:34.588Z,100.00
2023-05-22T04:27:03.223Z,100.00
2023-05-22T04:29:31.514Z,100.00
2023-05-22T04:32:00.641Z,100.00
2023-05-22T04:34:28.947Z,100.00
2023-05-22T04:36:56.682Z,100.00
2023-05-22T04:39:26.609Z,100.00
2023-05-22T04:42:06.077Z,100.00
2023-05-22T04:44:34.752Z,99.30
2023-05-22T04:47:03.958Z,94.15
2023-05-22T04:49:32.438Z,87.38
2023-05-22T04:52:05.010Z,84.59
2023-05-22T04:54:34.551Z,82.43
2023-05-22T04:57:03.496Z,80.74
2023-05-22T04:59:33.762Z,77.78
2023-05-22T05:02:01.744Z,77.25
2023-05-22T05:04:29.007Z,76.27
2023-05-22T05:06:57.943Z,75.11
2023-05-22T05:09:26.064Z,72.62
2023-05-22T05:11:53.619Z,72.06
2023-05-22T05:14:21.721Z,72.66
2023-05-22T05:16:49.254Z,70.34
2023-05-22T05:19:21.733Z,69.03
2023-05-22T05:21:52.752Z,69.47
2023-05-22T05:24:20.344Z,68.90
2023-05-22T05:26:47.779Z,69.18
2023-05-22T05:29:16.191Z,69.62
2023-05-22T05:31:43.683Z,69.16
2023-05-22T05:34:11.377Z,68.05
2023-05-22T05:36:38.575Z,66.71
2023-05-22T05:39:06.069Z,66.99
2023-05-22T05:41:33.607Z,66.33
2023-05-22T05:44:01.778Z,65.83
2023-05-22T05:46:29.096Z,65.54
2023-05-22T05:48:56.396Z,65.22
2023-05-22T05:51:23.997Z,64.41
2023-05-22T05:53:51.499Z,64.17
2023-05-22T05:56:18.786Z,64.16
2023-05-22T05:58:46.209Z,64.25
2023-05-22T06:01:13.623Z,65.63
2023-05-22T06:03:46.907Z,66.48
2023-05-22T06:06:14.406Z,66.36
2023-05-22T06:08:47.898Z,66.72
2023-05-22T06:11:15.258Z,66.15
2023-05-22T06:13:43.718Z,65.74
2023-05-22T06:16:11.285Z,64.85
2023-05-22T06:18:38.837Z,65.54
2023-05-22T06:21:07.786Z,65.89
2023-05-22T06:23:36.232Z,63.73
2023-05-22T06:26:03.685Z,63.44
2023-05-22T06:28:31.086Z,64.39
2023-05-22T06:30:58.672Z,64.90
2023-05-22T06:33:27.011Z,64.73
2023-05-22T06:35:54.437Z,63.64
2023-05-22T06:38:22.231Z,63.18
2023-05-22T06:40:50.022Z,62.28
2023-05-22T06:43:17.301Z,63.46
2023-05-22T06:45:45.151Z,61.73
2023-05-22T06:48:13.101Z,62.26
2023-05-22T06:50:40.501Z,60.95
2023-05-22T06:53:09.384Z,61.63
2023-05-22T06:55:36.631Z,61.52
2023-05-22T06:58:04.192Z,59.90
2023-05-22T07:00:32.115Z,59.90
2023-05-22T07:02:59.757Z,60.85
2023-05-22T07:05:27.064Z,60.33
2023-05-22T07:07:54.621Z,58.22
2023-05-22T07:10:22.008Z,59.21
2023-05-22T07:13:01.786Z,57.53
2023-05-22T07:15:35.997Z,58.77
2023-05-22T07:18:05.677Z,55.06
2023-05-22T07:20:34.292Z,56.48
2023-05-22T07:23:01.805Z,56.49
2023-05-22T07:25:29.476Z,56.80
2023-05-22T07:27:58.736Z,57.75
2023-05-22T07:30:26.290Z,54.58
2023-05-22T07:32:56.835Z,54.89
2023-05-22T07:35:24.194Z,55.32
2023-05-22T07:37:51.648Z,55.73
2023-05-22T07:40:19.132Z,54.00
2023-05-22T07:42:46.484Z,54.47
2023-05-22T07:45:14.557Z,53.33
2023-05-22T07:47:42.998Z,53.41
2023-05-22T07:50:11.773Z,51.65
2023-05-22T07:52:39.729Z,53.12
2023-05-22T07:55:08.249Z,52.36
2023-05-22T07:57:36.581Z,53.34
2023-05-22T08:00:14.157Z,52.08
2023-05-22T08:02:42.050Z,50.55
2023-05-22T08:05:10.500Z,50.73
2023-05-22T08:07:39.143Z,51.28
2023-05-22T08:10:16.136Z,49.83
2023-05-22T08:12:44.413Z,47.58
2023-05-22T08:15:12.664Z,48.37
2023-05-22T08:17:40.234Z,47.79
2023-05-22T08:20:09.629Z,46.53
2023-05-22T08:22:39.795Z,45.88
2023-05-22T08:25:11.729Z,45.43
2023-05-22T08:27:40.550Z,45.12
2023-05-22T08:30:08.623Z,43.73
2023-05-22T08:32:36.119Z,42.96
2023-05-22T08:35:03.696Z,42.39
2023-05-22T08:37:32.098Z,42.22
2023-05-22T08:39:59.655Z,42.25
2023-05-22T08:42:27.095Z,43.53
2023-05-22T08:45:07.529Z,40.76
2023-05-22T08:47:43.006Z,37.91
2023-05-22T08:50:11.714Z,37.47
2023-05-22T08:52:55.047Z,37.53
2023-05-22T08:55:22.804Z,36.52
2023-05-22T08:57:50.676Z,38.85
2023-05-22T09:00:19.919Z,38.20
2023-05-22T09:02:48.328Z,35.94
2023-05-22T09:05:19.906Z,37.25
2023-05-22T09:07:49.205Z,36.30
2023-05-22T09:10:16.589Z,37.24
2023-05-22T09:13:08.152Z,36.36
2023-05-22T09:15:38.866Z,34.77
2023-05-22T09:18:06.925Z,36.39
2023-05-22T09:20:39.540Z,35.31
2023-05-22T09:23:20.106Z,34.77
2023-05-22T09:25:48.566Z,33.64
2023-05-22T09:28:16.159Z,37.37
2023-05-22T09:30:49.928Z,36.06
2023-05-22T09:33:18.242Z,35.87
2023-05-22T09:35:50.070Z,35.87
2023-05-22T09:38:22.384Z,34.66
2023-05-22T09:40:54.789Z,34.18
2023-05-22T09:43:26.062Z,34.48
2023-05-22T09:46:02.827Z,35.30
2023-05-22T09:48:38.709Z,35.26
2023-05-22T09:51:07.640Z,33.97
2023-05-22T09:53:36.283Z,34.71
2023-05-22T09:56:10.381Z,33.68
2023-05-22T09:58:42.066Z,34.61
2023-05-22T10:01:14.257Z,35.16
2023-05-22T10:03:45.864Z,35.83
2023-05-22T10:06:16.710Z,33.53
2023-05-22T10:08:51.142Z,33.97
2023-05-22T10:11:18.997Z,33.10
2023-05-22T10:13:48.239Z,32.24
2023-05-22T10:16:17.089Z,32.13
2023-05-22T10:18:47.204Z,31.61
2023-05-22T10:21:16.945Z,32.28
2023-05-22T10:23:44.782Z,32.62
2023-05-22T10:26:12.781Z,31.63
2023-05-22T10:28:47.638Z,31.43
2023-05-22T10:32:08.707Z,32.17
2023-05-22T10:34:51.073Z,30.97
2023-05-22T10:37:31.907Z,30.05
2023-05-22T10:40:10.108Z,31.27
2023-05-22T10:42:40.364Z,29.78
2023-05-22T10:45:09.177Z,30.67
2023-05-22T10:47:37.228Z,29.96
2023-05-22T10:50:11.888Z,29.74
2023-05-22T10:52:41.272Z,29.99
2023-05-22T10:55:10.152Z,30.34
2023-05-22T10:57:42.561Z,28.18
2023-05-22T11:00:15.962Z,28.14
2023-05-22T11:02:45.137Z,28.82
2023-05-22T11:05:34.795Z,28.42
2023-05-22T11:08:27.882Z,27.76
2023-05-22T11:10:59.378Z,28.10
2023-05-22T11:13:34.831Z,28.21
2023-05-22T11:16:06.600Z,27.96
2023-05-22T11:18:35.163Z,27.56
2023-05-22T11:21:02.696Z,26.54
2023-05-22T11:23:34.197Z,27.92
2023-05-22T11:26:20.719Z,26.89
2023-05-22T11:28:54.675Z,25.26
2023-05-22T11:31:23.679Z,26.44
2023-05-22T11:33:51.296Z,27.70
2023-05-22T11:36:19.067Z,26.53
2023-05-22T11:38:47.525Z,26.87
2023-05-22T11:41:16.117Z,27.05
2023-05-22T11:43:43.570Z,26.79
2023-05-22T11:46:12.012Z,29.13
2023-05-22T11:48:43.240Z,30.35
2023-05-22T11:51:11.182Z,29.19
2023-05-22T11:53:38.994Z,27.35
2023-05-22T11:56:08.045Z,27.83
2023-05-22T11:58:41.389Z,28.59
2023-05-22T12:01:09.078Z,27.47
2023-05-22T12:03:36.449Z,28.60
2023-05-22T12:06:05.725Z,28.04
2023-05-22T12:08:34.971Z,27.54
2023-05-22T12:11:12.646Z,27.04
2023-05-22T12:13:42.092Z,26.94
2023-05-22T12:16:20.442Z,27.91
2023-05-22T12:18:56.059Z,26.96
2023-05-22T12:21:23.423Z,26.16
2023-05-22T12:23:52.974Z,26.68
2023-05-22T12:26:21.945Z,26.24
2023-05-22T12:28:54.137Z,28.00
2023-05-22T12:31:23.089Z,29.73
2023-05-22T12:33:53.870Z,28.15
2023-05-22T12:36:22.058Z,28.48
2023-05-22T12:38:50.368Z,27.28
2023-05-22T12:41:17.802Z,28.18
2023-05-22T12:43:44.915Z,28.44
2023-05-22T12:46:12.246Z,26.28
2023-05-22T12:48:39.701Z,26.50
2023-05-22T12:51:09.600Z,27.26
2023-05-22T12:53:37.217Z,27.77
2023-05-22T12:56:06.118Z,30.38
2023-05-22T12:58:39.302Z,30.47
2023-05-22T13:01:06.825Z,29.51
2023-05-22T13:03:35.423Z,28.06
2023-05-22T13:06:03.763Z,27.82
2023-05-22T13:08:31.380Z,28.33
2023-05-22T13:11:05.150Z,28.02
2023-05-22T13:13:33.085Z,28.07
2023-05-22T13:16:01.029Z,29.35
2023-05-22T13:18:28.672Z,28.59
2023-05-22T13:21:00.555Z,27.58
2023-05-22T13:23:28.237Z,27.28
2023-05-22T13:25:55.644Z,26.44
2023-05-22T13:28:24.177Z,27.86
2023-05-22T13:30:51.655Z,26.73
2023-05-22T13:33:21.463Z,27.28
2023-05-22T13:35:49.051Z,29.24
2023-05-22T13:38:16.549Z,29.10
2023-05-22T13:40:45.711Z,29.66
2023-05-22T13:43:14.790Z,28.35
2023-05-22T13:45:44.154Z,27.47
2023-05-22T13:48:12.083Z,26.50
2023-05-22T13:50:39.881Z,27.37
2023-05-22T13:53:08.187Z,26.78
2023-05-22T13:55:36.454Z,27.40
2023-05-22T13:58:05.655Z,27.49
2023-05-22T14:00:33.199Z,26.89
2023-05-22T14:03:01.086Z,25.44
2023-05-22T14:05:28.746Z,26.66
2023-05-22T14:07:57.186Z,27.72
2023-05-22T14:10:34.919Z,27.33
2023-05-22T14:13:03.876Z,28.00
2023-05-22T14:15:32.258Z,29.37
2023-05-22T14:17:59.782Z,31.43
2023-05-22T14:20:30.480Z,29.66
2023-05-22T14:22:58.360Z,29.40
2023-05-22T14:25:26.654Z,28.43
2023-05-22T14:27:54.173Z,27.81
2023-05-22T14:30:21.740Z,27.70
2023-05-22T14:32:49.139Z,27.85
2023-05-22T14:35:17.031Z,27.24
2023-05-22T14:37:45.077Z,27.94
2023-05-22T14:40:12.545Z,27.81
2023-05-22T14:42:41.017Z,27.16
2023-05-22T14:45:09.716Z,26.91
2023-05-22T14:47:37.025Z,27.71
2023-05-22T14:50:18.018Z,28.27
2023-05-22T14:52:46.059Z,27.48
2023-05-22T14:55:13.424Z,28.07
2023-05-22T14:57:40.875Z,29.70
2023-05-22T15:00:11.248Z,29.46
2023-05-22T15:02:38.560Z,28.77
2023-05-22T15:05:07.573Z,29.12
2023-05-22T15:10:08.437Z,28.69
2023-05-22T15:12:35.997Z,28.36
2023-05-22T15:15:04.864Z,28.99
2023-05-22T15:17:32.545Z,28.25
2023-05-22T15:20:00.186Z,28.48
2023-05-22T15:22:27.644Z,28.70
2023-05-22T15:25:12.012Z,27.98
2023-05-22T15:27:40.317Z,27.99
2023-05-22T15:30:12.501Z,27.47
2023-05-22T15:32:39.951Z,27.57
2023-05-22T15:35:08.142Z,28.30
2023-05-22T15:37:36.799Z,27.08
2023-05-22T15:40:09.958Z,28.35
2023-05-22T15:42:38.906Z,28.95
2023-05-22T15:45:06.819Z,27.90
2023-05-22T15:47:35.597Z,29.81
2023-05-22T15:50:09.731Z,30.20
2023-05-22T15:52:38.256Z,31.76
2023-05-22T15:55:05.748Z,32.07
2023-05-22T15:57:39.105Z,34.21
2023-05-22T16:00:08.942Z,31.83
2023-05-22T16:02:46.458Z,31.47
2023-05-22T16:05:20.181Z,31.23
2023-05-22T16:07:49.594Z,31.06
2023-05-22T16:10:18.500Z,31.32
2023-05-22T16:12:46.574Z,32.88
2023-05-22T16:15:14.138Z,32.66
2023-05-22T16:17:42.673Z,32.90
2023-05-22T16:20:12.242Z,32.58
2023-05-22T16:22:48.277Z,32.99
2023-05-22T16:25:18.041Z,32.58
2023-05-22T16:27:46.310Z,31.14
2023-05-22T16:30:17.099Z,31.86
2023-05-22T16:32:48.839Z,31.91
2023-05-22T16:35:17.066Z,31.61
2023-05-22T16:37:46.329Z,31.98
2023-05-22T16:40:13.886Z,31.72
2023-05-22T16:42:42.468Z,32.27
2023-05-22T16:45:10.198Z,32.20
2023-05-22T16:47:37.922Z,33.23
2023-05-22T16:50:05.905Z,32.79
2023-05-22T16:52:34.389Z,33.96
2023-05-22T16:55:02.079Z,33.89
2023-05-22T16:57:35.357Z,33.56
2023-05-22T17:00:04.153Z,34.17
2023-05-22T17:02:33.790Z,33.94
2023-05-22T17:05:02.776Z,34.18
2023-05-22T17:07:32.058Z,34.50
2023-05-22T17:09:59.409Z,34.81
2023-05-22T17:12:26.904Z,35.47
2023-05-22T17:14:54.345Z,35.70
2023-05-22T17:17:21.782Z,36.19
2023-05-22T17:19:49.218Z,36.16
2023-05-22T17:22:16.742Z,36.04
2023-05-22T17:24:44.230Z,36.03
2023-05-22T17:27:12.788Z,36.26
2023-05-22T17:29:46.796Z,36.71
2023-05-22T17:32:14.284Z,36.40
2023-05-22T17:34:41.661Z,37.19
2023-05-22T17:37:10.626Z,37.71
2023-05-22T17:39:39.230Z,37.50
2023-05-22T17:42:06.835Z,37.49
2023-05-22T17:44:34.157Z,37.59
2023-05-22T17:47:01.856Z,37.59
2023-05-22T17:49:30.253Z,38.36
2023-05-22T17:51:58.624Z,38.56
2023-05-22T17:54:26.058Z,38.74
2023-05-22T17:56:55.341Z,38.95
2023-05-22T17:59:22.504Z,39.41
2023-05-22T18:01:50.117Z,39.98
2023-05-22T18:04:17.575Z,40.50
2023-05-22T18:06:50.613Z,40.72
2023-05-22T18:09:18.083Z,40.42
2023-05-22T18:11:45.536Z,41.04
2023-05-22T18:14:14.020Z,42.74
2023-05-22T18:16:41.510Z,43.36
2023-05-22T18:19:08.963Z,43.51
2023-05-22T18:21:36.536Z,43.40
2023-05-22T18:24:06.464Z,42.96
2023-05-22T18:26:33.919Z,43.68
2023-05-22T18:29:01.454Z,43.62
2023-05-22T18:31:28.926Z,44.66
2023-05-22T18:33:56.310Z,44.61
2023-05-22T18:36:23.649Z,46.00
2023-05-22T18:38:51.003Z,46.12
2023-05-22T18:41:19.332Z,47.26
2023-05-22T18:43:46.535Z,47.50
2023-05-22T18:46:14.046Z,47.41
2023-05-22T18:48:42.421Z,48.18
2023-05-22T18:51:09.888Z,48.55
2023-05-22T18:53:37.278Z,48.73
2023-05-22T18:56:04.920Z,48.67
2023-05-22T18:58:32.238Z,49.05
2023-05-22T19:01:02.467Z,49.43
2023-05-22T19:03:30.332Z,49.26
2023-05-22T19:05:57.769Z,48.82
2023-05-22T19:08:38.507Z,48.92
2023-05-22T19:11:08.026Z,49.27
2023-05-22T19:13:36.491Z,49.73
2023-05-22T19:16:04.917Z,49.81
2023-05-22T19:18:32.746Z,49.98
2023-05-22T19:21:00.432Z,50.04
2023-05-22T19:23:29.725Z,50.04
2023-05-22T19:25:58.605Z,50.58
2023-05-22T19:28:26.705Z,50.74
2023-05-22T19:30:57.927Z,51.15
2023-05-22T19:33:27.949Z,50.57
2023-05-22T19:35:56.609Z,50.97
2023-05-22T19:38:31.422Z,51.13
2023-05-22T19:40:58.685Z,51.14
2023-05-22T19:43:26.038Z,51.88
2023-05-22T19:45:54.640Z,52.50
2023-05-22T19:48:22.079Z,53.55
2023-05-22T19:50:49.281Z,54.27
2023-05-22T19:53:16.833Z,54.26
2023-05-22T19:55:44.160Z,54.57
2023-05-22T19:58:12.062Z,53.23
2023-05-22T20:00:41.553Z,52.80
2023-05-22T20:03:12.111Z,52.95
2023-05-22T20:05:39.992Z,56.02
2023-05-22T20:08:07.972Z,58.47
2023-05-22T20:10:35.344Z,58.00
2023-05-22T20:13:02.901Z,57.10
2023-05-22T20:15:33.132Z,58.47
2023-05-22T20:18:02.941Z,59.02
2023-05-22T20:20:30.497Z,58.88
2023-05-22T20:22:59.361Z,59.04
2023-05-22T20:25:27.003Z,59.26
2023-05-22T20:27:56.327Z,60.09
2023-05-22T20:30:23.970Z,59.74
2023-05-22T20:32:52.326Z,61.12
2023-05-22T20:35:20.501Z,60.40
2023-05-22T20:37:55.388Z,61.14
2023-05-22T20:40:26.792Z,62.03
2023-05-22T20:42:53.856Z,62.44
2023-05-22T20:45:22.606Z,63.54
2023-05-22T20:47:50.229Z,63.53
2023-05-22T20:50:18.781Z,63.58
2023-05-22T20:52:46.317Z,64.06
2023-05-22T20:55:13.661Z,63.35
2023-05-22T20:57:42.113Z,63.13
2023-05-22T21:00:11.450Z,62.37
2023-05-22T21:02:42.218Z,63.00
2023-05-22T21:05:10.723Z,63.96
2023-05-22T21:07:38.155Z,62.37
2023-05-22T21:10:23.558Z,61.71
2023-05-22T21:12:52.039Z,61.87
2023-05-22T21:15:19.501Z,62.21
2023-05-22T21:17:48.001Z,62.13
2023-05-22T21:20:15.448Z,62.45
2023-05-22T21:22:42.842Z,63.96
2023-05-22T21:25:11.475Z,65.38
2023-05-22T21:27:38.908Z,68.12
2023-05-22T21:30:06.754Z,70.21
2023-05-22T21:32:34.377Z,71.82
2023-05-22T21:35:05.061Z,72.86
2023-05-22T21:37:34.483Z,73.10
2023-05-22T21:40:03.045Z,72.73
2023-05-22T21:42:44.543Z,72.16
2023-05-22T21:45:13.300Z,74.32
2023-05-22T21:47:40.898Z,75.10
2023-05-22T21:50:09.518Z,76.63
2023-05-22T21:52:36.830Z,77.40
2023-05-22T21:55:06.213Z,77.31
2023-05-22T21:57:33.633Z,76.70
2023-05-22T22:00:01.121Z,78.29
2023-05-22T22:02:29.652Z,78.87
2023-05-22T22:04:57.034Z,78.78
2023-05-22T22:07:24.543Z,78.60
2023-05-22T22:09:52.131Z,79.06
2023-05-22T22:12:21.727Z,79.96
2023-05-22T22:14:50.079Z,79.83
2023-05-22T22:17:23.985Z,79.67
2023-05-22T22:19:57.267Z,80.08
2023-05-22T22:22:31.248Z,80.99
2023-05-22T22:24:58.749Z,81.75
2023-05-22T22:27:27.285Z,84.63
2023-05-22T22:29:54.671Z,88.31
2023-05-22T22:32:23.072Z,89.04
2023-05-22T22:34:54.049Z,88.29
2023-05-22T22:37:22.727Z,87.41
2023-05-22T22:39:50.070Z,86.73
2023-05-22T22:42:17.629Z,86.66
2023-05-22T22:44:45.117Z,87.01
2023-05-22T22:47:12.448Z,85.67
2023-05-22T22:49:39.955Z,85.19
2023-05-22T22:52:09.423Z,85.94
2023-05-22T22:54:37.952Z,86.25
2023-05-22T22:57:11.528Z,86.33
2023-05-22T22:59:39.022Z,86.51
2023-05-22T23:02:06.481Z,85.73
2023-05-22T23:04:34.169Z,86.29
2023-05-22T23:07:03.230Z,86.25
2023-05-22T23:09:30.395Z,86.01
2023-05-22T23:11:57.848Z,86.54
2023-05-22T23:14:31.118Z,86.59
2023-05-22T23:16:58.469Z,85.90
2023-05-22T23:19:26.138Z,85.99
2023-05-22T23:21:54.396Z,86.03
2023-05-22T23:24:24.058Z,87.06
2023-05-22T23:26:53.114Z,88.63
2023-05-22T23:29:20.750Z,88.46
2023-05-22T23:31:50.749Z,89.08
2023-05-22T23:34:20.776Z,89.10
2023-05-22T23:36:52.962Z,88.86
2023-05-22T23:39:22.550Z,88.89
2023-05-22T23:41:50.060Z,89.76
2023-05-22T23:44:18.472Z,90.57
2023-05-22T23:46:47.949Z,90.50
2023-05-22T23:49:16.162Z,92.02
2023-05-22T23:51:43.487Z,95.45
2023-05-22T23:54:11.600Z,97.31
2023-05-22T23:56:39.571Z,96.75
2023-05-22T23:59:07.169Z,95.50
